createdAt,value
2018-12-22T00:00:53.018Z,0.00
2018-12-22T00:01:53.015Z,0.00
2018-12-22T00:02:52.999Z,0.00
2018-12-22T00:03:52.995Z,0.00
2018-12-22T00:04:52.976Z,0.00
2018-12-22T00:05:52.970Z,0.00
2018-12-22T00:06:52.949Z,0.00
2018-12-22T00:07:52.940Z,0.00
2018-12-22T00:08:52.990Z,0.00
2018-12-22T00:09:52.920Z,0.00
2018-12-22T00:10:52.909Z,0.00
2018-12-22T00:11:52.898Z,0.00
2018-12-22T00:12:52.896Z,0.00
2018-12-22T00:13:52.996Z,0.00
2018-12-22T00:14:52.882Z,0.00
2018-12-22T00:15:52.868Z,0.00
2018-12-22T00:16:52.855Z,0.00
2018-12-22T00:17:52.836Z,0.00
2018-12-22T00:18:52.824Z,0.00
2018-12-22T00:19:52.866Z,0.00
2018-12-22T00:20:52.818Z,0.00
2018-12-22T00:21:52.797Z,0.00
2018-12-22T00:22:52.794Z,0.00
2018-12-22T00:23:52.781Z,0.00
2018-12-22T00:24:52.768Z,0.00
2018-12-22T00:25:52.766Z,0.00
2018-12-22T00:26:52.750Z,0.00
2018-12-22T00:27:52.727Z,0.00
2018-12-22T00:28:52.719Z,0.00
2018-12-22T00:29:52.714Z,0.00
2018-12-22T00:30:52.698Z,0.00
2018-12-22T00:31:52.690Z,0.00
2018-12-22T00:32:52.673Z,0.00
2018-12-22T00:33:52.666Z,0.00
2018-12-22T00:34:52.655Z,0.00
2018-12-22T00:35:52.651Z,0.00
2018-12-22T00:36:52.636Z,0.00
2018-12-22T00:37:52.629Z,0.00
2018-12-22T00:38:52.642Z,0.00
2018-12-22T00:39:52.605Z,0.00
2018-12-22T00:40:52.593Z,0.00
2018-12-22T00:41:52.647Z,0.00
2018-12-22T00:42:52.578Z,0.00
2018-12-22T00:43:52.562Z,0.00
2018-12-22T00:44:52.553Z,0.00
2018-12-22T00:45:52.542Z,0.00
2018-12-22T00:46:52.528Z,0.00
2018-12-22T00:47:52.516Z,0.00
2018-12-22T00:48:52.516Z,0.00
2018-12-22T00:49:52.508Z,0.00
2018-12-22T00:50:52.495Z,0.00
2018-12-22T00:51:52.479Z,0.00
2018-12-22T00:52:52.465Z,0.00
2018-12-22T00:53:52.456Z,0.00
2018-12-22T00:54:52.449Z,0.00
2018-12-22T00:55:52.444Z,0.00
2018-12-22T00:56:52.426Z,0.00
2018-12-22T00:57:52.418Z,0.00
2018-12-22T00:58:52.404Z,0.00
2018-12-22T00:59:52.394Z,0.00
2018-12-22T01:00:52.384Z,0.00
2018-12-22T01:01:52.367Z,0.00
2018-12-22T01:02:52.356Z,0.00
2018-12-22T01:03:52.351Z,0.00
2018-12-22T01:04:52.338Z,0.00
2018-12-22T01:05:52.352Z,0.00
2018-12-22T01:06:52.811Z,0.00
2018-12-22T01:07:52.317Z,0.00
2018-12-22T01:08:52.294Z,0.00
2018-12-22T01:09:52.290Z,0.00
2018-12-22T01:10:52.277Z,0.00
2018-12-22T01:11:52.268Z,0.00
2018-12-22T01:12:52.256Z,0.00
2018-12-22T01:13:52.243Z,0.00
2018-12-22T01:14:52.233Z,0.00
2018-12-22T01:15:52.222Z,0.00
2018-12-22T01:16:52.211Z,0.00
2018-12-22T01:17:52.208Z,0.00
2018-12-22T01:18:52.196Z,0.00
2018-12-22T01:19:52.223Z,0.00
2018-12-22T01:20:52.169Z,0.00
2018-12-22T01:21:52.158Z,0.00
2018-12-22T01:22:52.155Z,0.00
2018-12-22T01:23:52.145Z,0.00
2018-12-22T01:24:52.134Z,0.00
2018-12-22T01:25:52.116Z,0.00
2018-12-22T01:26:52.125Z,0.00
2018-12-22T01:27:52.091Z,0.00
2018-12-22T01:28:52.116Z,0.00
2018-12-22T01:29:52.112Z,0.00
2018-12-22T01:30:52.171Z,0.00
2018-12-22T01:31:52.057Z,0.00
2018-12-22T01:32:52.038Z,0.00
2018-12-22T01:33:52.032Z,0.00
2018-12-22T01:34:52.022Z,0.00
2018-12-22T01:35:52.008Z,0.00
2018-12-22T01:36:52.002Z,0.00
2018-12-22T01:37:52.009Z,0.00
2018-12-22T01:38:51.976Z,0.00
2018-12-22T01:39:51.975Z,0.00
2018-12-22T01:40:51.972Z,0.00
2018-12-22T01:41:51.958Z,0.00
2018-12-22T01:42:51.934Z,0.00
2018-12-22T01:43:51.927Z,0.00
2018-12-22T01:44:51.963Z,0.00
2018-12-22T01:45:51.912Z,0.00
2018-12-22T01:46:51.895Z,0.00
2018-12-22T01:47:51.892Z,0.00
2018-12-22T01:48:51.873Z,0.00
2018-12-22T01:49:51.859Z,0.00
2018-12-22T01:50:51.850Z,0.00
2018-12-22T01:51:51.835Z,0.00
2018-12-22T01:52:51.839Z,0.00
2018-12-22T01:53:51.820Z,0.00
2018-12-22T01:54:51.803Z,0.00
2018-12-22T01:55:51.806Z,0.00
2018-12-22T01:56:51.787Z,0.00
2018-12-22T01:57:51.775Z,0.00
2018-12-22T01:58:51.774Z,0.00
2018-12-22T01:59:51.784Z,0.00
2018-12-22T02:00:51.743Z,0.00
2018-12-22T02:01:51.734Z,0.00
2018-12-22T02:02:51.730Z,0.00
2018-12-22T02:03:51.733Z,0.00
2018-12-22T02:04:51.699Z,0.00
2018-12-22T02:05:51.742Z,0.00
2018-12-22T02:06:51.680Z,0.00
2018-12-22T02:07:51.681Z,0.00
2018-12-22T02:08:51.672Z,0.00
2018-12-22T02:09:51.650Z,0.00
2018-12-22T02:10:51.641Z,0.00
2018-12-22T02:11:51.631Z,0.00
2018-12-22T02:12:51.617Z,0.00
2018-12-22T02:13:51.612Z,0.00
2018-12-22T02:14:51.591Z,0.00
2018-12-22T02:15:51.584Z,0.00
2018-12-22T02:16:51.585Z,0.00
2018-12-22T02:17:51.563Z,0.00
2018-12-22T02:18:51.552Z,0.00
2018-12-22T02:19:51.543Z,0.00
2018-12-22T02:20:51.528Z,0.00
2018-12-22T02:21:51.527Z,0.00
2018-12-22T02:22:51.538Z,0.00
2018-12-22T02:23:51.514Z,0.00
2018-12-22T02:24:51.485Z,0.00
2018-12-22T02:25:51.483Z,0.00
2018-12-22T02:26:51.461Z,0.00
2018-12-22T02:27:51.466Z,0.00
2018-12-22T02:28:56.582Z,0.00
2018-12-22T02:29:52.432Z,0.00
2018-12-22T02:30:51.435Z,0.00
2018-12-22T02:31:51.441Z,0.00
2018-12-22T02:32:51.499Z,0.00
2018-12-22T02:33:51.398Z,0.00
2018-12-22T02:34:51.413Z,0.00
2018-12-22T02:35:51.376Z,0.00
2018-12-22T02:36:51.356Z,0.00
2018-12-22T02:37:51.353Z,0.00
2018-12-22T02:38:51.348Z,0.00
2018-12-22T02:39:51.328Z,0.00
2018-12-22T02:40:51.344Z,0.00
2018-12-22T02:41:51.301Z,0.00
2018-12-22T02:42:51.314Z,0.00
2018-12-22T02:43:51.280Z,0.00
2018-12-22T02:44:51.283Z,0.00
2018-12-22T02:45:51.278Z,0.00
2018-12-22T02:46:51.272Z,0.00
2018-12-22T02:47:51.241Z,0.00
2018-12-22T02:48:51.240Z,0.00
2018-12-22T02:49:51.219Z,0.00
2018-12-22T02:50:51.207Z,0.00
2018-12-22T02:51:51.204Z,0.00
2018-12-22T02:52:51.185Z,0.00
2018-12-22T02:53:51.171Z,0.00
2018-12-22T02:54:51.174Z,0.00
2018-12-22T02:55:51.278Z,0.00
2018-12-22T02:56:51.141Z,0.00
2018-12-22T02:57:51.153Z,0.00
2018-12-22T02:58:51.117Z,0.00
2018-12-22T02:59:51.286Z,0.00
2018-12-22T03:00:51.098Z,0.00
2018-12-22T03:01:51.093Z,0.00
2018-12-22T03:02:51.107Z,0.00
2018-12-22T03:03:51.074Z,0.00
2018-12-22T03:04:51.054Z,0.00
2018-12-22T03:05:51.072Z,0.00
2018-12-22T03:06:51.040Z,0.00
2018-12-22T03:07:51.027Z,0.00
2018-12-22T03:08:51.017Z,0.00
2018-12-22T03:09:51.011Z,0.00
2018-12-22T03:10:50.990Z,0.00
2018-12-22T03:11:50.980Z,0.00
2018-12-22T03:12:51.083Z,0.00
2018-12-22T03:13:50.972Z,0.00
2018-12-22T03:14:50.950Z,0.00
2018-12-22T03:15:50.960Z,0.00
2018-12-22T03:16:50.923Z,0.00
2018-12-22T03:17:50.914Z,0.00
2018-12-22T03:18:50.904Z,0.00
2018-12-22T03:19:50.901Z,0.00
2018-12-22T03:20:50.923Z,0.00
2018-12-22T03:21:50.874Z,0.00
2018-12-22T03:22:50.861Z,0.00
2018-12-22T03:23:50.856Z,0.00
2018-12-22T03:24:50.843Z,0.00
2018-12-22T03:25:50.847Z,0.00
2018-12-22T03:26:50.819Z,0.00
2018-12-22T03:27:50.805Z,0.00
2018-12-22T03:28:50.801Z,0.00
2018-12-22T03:29:51.113Z,0.00
2018-12-22T03:30:50.781Z,0.00
2018-12-22T03:31:50.773Z,0.00
2018-12-22T03:32:50.758Z,0.00
2018-12-22T03:33:50.742Z,0.00
2018-12-22T03:34:50.735Z,0.00
2018-12-22T03:35:50.720Z,0.00
2018-12-22T03:36:50.708Z,0.00
2018-12-22T03:37:50.732Z,0.00
2018-12-22T03:38:50.719Z,0.00
2018-12-22T03:39:50.679Z,0.00
2018-12-22T03:40:50.668Z,0.00
2018-12-22T03:41:50.658Z,0.00
2018-12-22T03:42:50.657Z,0.00
2018-12-22T03:43:50.635Z,0.00
2018-12-22T03:44:50.621Z,0.00
2018-12-22T03:45:50.641Z,0.00
2018-12-22T03:46:50.622Z,0.00
2018-12-22T03:47:50.594Z,0.00
2018-12-22T03:48:50.585Z,0.00
2018-12-22T03:49:50.581Z,0.00
2018-12-22T03:50:50.561Z,0.00
2018-12-22T03:51:50.546Z,0.00
2018-12-22T03:52:50.553Z,0.00
2018-12-22T03:53:50.537Z,0.00
2018-12-22T03:54:50.537Z,0.00
2018-12-22T03:55:50.508Z,0.00
2018-12-22T03:56:50.544Z,0.00
2018-12-22T03:57:50.482Z,0.00
2018-12-22T03:58:50.478Z,0.00
2018-12-22T03:59:50.467Z,0.00
2018-12-22T04:00:50.489Z,0.00
2018-12-22T04:01:50.446Z,0.00
2018-12-22T04:02:50.461Z,0.00
2018-12-22T04:03:50.439Z,0.00
2018-12-22T04:04:51.746Z,0.00
2018-12-22T04:05:50.410Z,0.00
2018-12-22T04:06:50.403Z,0.00
2018-12-22T04:07:50.372Z,0.00
2018-12-22T04:08:50.365Z,0.00
2018-12-22T04:09:50.358Z,0.00
2018-12-22T04:10:50.358Z,0.00
2018-12-22T04:11:50.346Z,0.00
2018-12-22T04:12:50.351Z,0.00
2018-12-22T04:13:50.342Z,0.00
2018-12-22T04:14:50.359Z,0.00
2018-12-22T04:15:50.339Z,0.00
2018-12-22T04:16:50.291Z,0.00
2018-12-22T04:17:50.281Z,0.00
2018-12-22T04:18:51.193Z,0.00
2018-12-22T04:19:50.262Z,0.00
2018-12-22T04:20:50.377Z,0.00
2018-12-22T04:21:50.235Z,0.00
2018-12-22T04:22:50.219Z,0.00
2018-12-22T04:23:50.214Z,0.00
2018-12-22T04:24:50.196Z,0.00
2018-12-22T04:25:50.183Z,0.00
2018-12-22T04:26:50.312Z,0.00
2018-12-22T04:27:50.160Z,0.00
2018-12-22T04:28:50.154Z,0.00
2018-12-22T04:29:50.142Z,0.00
2018-12-22T04:30:50.129Z,0.00
2018-12-22T04:31:50.802Z,0.00
2018-12-22T04:32:50.115Z,0.00
2018-12-22T04:33:53.077Z,0.00
2018-12-22T04:34:50.094Z,0.00
2018-12-22T04:35:50.075Z,0.00
2018-12-22T04:36:50.064Z,0.00
2018-12-22T04:37:50.055Z,0.00
2018-12-22T04:38:50.045Z,0.00
2018-12-22T04:39:51.080Z,0.00
2018-12-22T04:40:50.177Z,0.00
2018-12-22T04:41:50.827Z,0.00
2018-12-22T04:42:50.001Z,0.00
2018-12-22T04:43:49.993Z,0.00
2018-12-22T04:44:49.980Z,0.00
2018-12-22T04:45:49.976Z,0.00
2018-12-22T04:46:49.962Z,0.00
2018-12-22T04:47:49.950Z,0.00
2018-12-22T04:48:49.944Z,0.00
2018-12-22T04:49:49.928Z,0.00
2018-12-22T04:50:49.912Z,0.00
2018-12-22T04:51:49.917Z,0.00
2018-12-22T04:52:49.911Z,0.00
2018-12-22T04:53:49.894Z,0.00
2018-12-22T04:54:49.870Z,0.00
2018-12-22T04:55:49.864Z,0.00
2018-12-22T04:56:49.853Z,0.00
2018-12-22T04:57:49.863Z,0.00
2018-12-22T04:58:49.838Z,0.00
2018-12-22T04:59:49.815Z,0.00
2018-12-22T05:00:49.807Z,0.00
2018-12-22T05:01:49.797Z,0.00
2018-12-22T05:02:49.793Z,0.00
2018-12-22T05:03:49.784Z,0.00
2018-12-22T05:04:49.766Z,0.00
2018-12-22T05:05:49.757Z,0.00
2018-12-22T05:06:49.740Z,0.00
2018-12-22T05:07:49.730Z,0.00
2018-12-22T05:08:49.733Z,0.00
2018-12-22T05:09:49.720Z,0.00
2018-12-22T05:10:49.706Z,0.00
2018-12-22T05:11:49.697Z,0.00
2018-12-22T05:12:49.748Z,0.00
2018-12-22T05:13:49.670Z,0.00
2018-12-22T05:14:49.664Z,0.00
2018-12-22T05:15:49.646Z,0.00
2018-12-22T05:16:49.640Z,0.00
2018-12-22T05:17:49.661Z,0.00
2018-12-22T05:18:49.679Z,0.00
2018-12-22T05:19:49.623Z,0.00
2018-12-22T05:20:49.613Z,0.00
2018-12-22T05:21:49.601Z,0.00
2018-12-22T05:22:49.575Z,0.00
2018-12-22T05:23:49.565Z,0.00
2018-12-22T05:24:49.550Z,0.00
2018-12-22T05:25:49.541Z,0.00
2018-12-22T05:26:49.531Z,0.00
2018-12-22T05:27:49.527Z,0.00
2018-12-22T05:28:49.516Z,0.00
2018-12-22T05:29:52.027Z,0.00
2018-12-22T05:30:49.485Z,0.00
2018-12-22T05:31:49.482Z,0.00
2018-12-22T05:32:49.475Z,0.00
2018-12-22T05:33:49.462Z,0.00
2018-12-22T05:34:49.448Z,0.00
2018-12-22T05:35:49.430Z,0.00
2018-12-22T05:36:49.430Z,0.00
2018-12-22T05:37:49.414Z,0.00
2018-12-22T05:38:49.415Z,0.00
2018-12-22T05:39:49.388Z,0.00
2018-12-22T05:40:49.378Z,0.00
2018-12-22T05:41:49.368Z,0.00
2018-12-22T05:42:49.360Z,0.00
2018-12-22T05:43:49.367Z,0.00
2018-12-22T05:44:49.358Z,0.00
2018-12-22T05:45:49.359Z,0.00
2018-12-22T05:46:49.315Z,0.00
2018-12-22T05:47:49.311Z,0.00
2018-12-22T05:48:49.296Z,0.00
2018-12-22T05:49:49.287Z,0.00
2018-12-22T05:50:49.270Z,0.00
2018-12-22T05:51:49.264Z,0.00
2018-12-22T05:52:49.254Z,0.00
2018-12-22T05:53:49.245Z,0.00
2018-12-22T05:54:49.252Z,0.00
2018-12-22T05:55:49.237Z,0.00
2018-12-22T05:56:49.210Z,0.00
2018-12-22T05:57:49.241Z,0.00
2018-12-22T05:58:49.185Z,0.00
2018-12-22T05:59:49.178Z,0.00
2018-12-22T06:00:49.187Z,0.00
2018-12-22T06:01:49.160Z,0.00
2018-12-22T06:02:49.149Z,0.00
2018-12-22T06:03:49.139Z,0.00
2018-12-22T06:04:49.161Z,0.00
2018-12-22T06:05:49.114Z,0.00
2018-12-22T06:06:49.104Z,0.00
2018-12-22T06:07:49.108Z,0.00
2018-12-22T06:08:49.102Z,0.00
2018-12-22T06:09:49.104Z,0.00
2018-12-22T06:10:49.086Z,0.00
2018-12-22T06:11:49.052Z,0.00
2018-12-22T06:12:49.041Z,0.00
2018-12-22T06:13:49.028Z,0.00
2018-12-22T06:14:49.017Z,0.00
2018-12-22T06:15:49.006Z,0.00
2018-12-22T06:16:49.013Z,0.00
2018-12-22T06:17:48.990Z,0.00
2018-12-22T06:18:48.996Z,0.00
2018-12-22T06:19:48.965Z,0.00
2018-12-22T06:20:48.957Z,0.00
2018-12-22T06:21:48.941Z,0.00
2018-12-22T06:22:49.614Z,0.00
2018-12-22T06:23:48.953Z,0.00
2018-12-22T06:24:48.919Z,0.00
2018-12-22T06:25:48.957Z,0.00
2018-12-22T06:26:48.889Z,0.00
2018-12-22T06:27:52.560Z,0.00
2018-12-22T06:28:48.868Z,0.00
2018-12-22T06:29:48.866Z,0.00
2018-12-22T06:30:48.857Z,0.00
2018-12-22T06:31:48.840Z,0.00
2018-12-22T06:32:48.824Z,0.00
2018-12-22T06:33:48.816Z,0.00
2018-12-22T06:34:48.808Z,0.00
2018-12-22T06:35:48.802Z,0.00
2018-12-22T06:36:48.791Z,0.00
2018-12-22T06:37:48.777Z,0.00
2018-12-22T06:38:48.766Z,0.00
2018-12-22T06:39:48.759Z,0.00
2018-12-22T06:40:48.744Z,0.00
2018-12-22T06:41:48.733Z,0.00
2018-12-22T06:42:48.725Z,0.00
2018-12-22T06:43:48.713Z,0.00
2018-12-22T06:44:48.707Z,0.00
2018-12-22T06:45:48.689Z,0.00
2018-12-22T06:46:48.687Z,0.00
2018-12-22T06:47:48.672Z,0.00
2018-12-22T06:48:48.661Z,0.00
2018-12-22T06:49:48.646Z,0.00
2018-12-22T06:50:48.635Z,0.00
2018-12-22T06:51:48.637Z,0.00
2018-12-22T06:52:48.616Z,0.00
2018-12-22T06:53:48.609Z,0.00
2018-12-22T06:54:49.670Z,0.00
2018-12-22T06:55:48.584Z,0.00
2018-12-22T06:56:48.571Z,0.00
2018-12-22T06:57:48.572Z,0.00
2018-12-22T06:58:48.557Z,0.00
2018-12-22T06:59:48.540Z,0.00
2018-12-22T07:00:48.571Z,0.00
2018-12-22T07:01:48.591Z,0.00
2018-12-22T07:02:48.511Z,0.00
2018-12-22T07:03:48.515Z,0.00
2018-12-22T07:04:48.492Z,0.00
2018-12-22T07:05:48.503Z,0.00
2018-12-22T07:06:48.469Z,0.00
2018-12-22T07:07:48.462Z,0.00
2018-12-22T07:08:48.447Z,0.00
2018-12-22T07:09:48.461Z,0.00
2018-12-22T07:10:48.434Z,0.00
2018-12-22T07:11:48.418Z,0.00
2018-12-22T07:12:48.718Z,0.00
2018-12-22T07:13:48.400Z,0.00
2018-12-22T07:14:48.780Z,0.00
2018-12-22T07:15:48.391Z,0.00
2018-12-22T07:16:48.375Z,0.00
2018-12-22T07:17:49.331Z,0.00
2018-12-22T07:18:48.379Z,0.00
2018-12-22T07:19:48.403Z,0.00
2018-12-22T07:20:48.319Z,0.00
2018-12-22T07:21:48.338Z,0.00
2018-12-22T07:22:48.321Z,0.00
2018-12-22T07:23:48.301Z,0.00
2018-12-22T07:24:48.310Z,0.00
2018-12-22T07:25:48.280Z,0.00
2018-12-22T07:26:48.348Z,0.00
2018-12-22T07:27:48.286Z,0.00
2018-12-22T07:28:48.257Z,0.00
2018-12-22T07:29:48.373Z,0.00
2018-12-22T07:30:48.221Z,0.00
2018-12-22T07:31:48.255Z,0.00
2018-12-22T07:32:56.640Z,0.00
2018-12-22T07:33:49.188Z,0.00
2018-12-22T07:34:48.172Z,0.00
2018-12-22T07:35:48.287Z,0.00
2018-12-22T07:36:48.163Z,0.00
2018-12-22T07:37:48.169Z,0.00
2018-12-22T07:38:48.205Z,0.00
2018-12-22T07:39:48.193Z,0.00
2018-12-22T07:40:48.179Z,0.00
2018-12-22T07:41:48.126Z,5.62
2018-12-22T07:42:48.225Z,0.00
2018-12-22T07:43:48.083Z,0.00
2018-12-22T07:44:48.185Z,0.00
2018-12-22T07:45:48.095Z,0.00
2018-12-22T07:46:48.063Z,0.00
2018-12-22T07:47:48.099Z,0.00
2018-12-22T07:48:48.057Z,0.00
2018-12-22T07:49:48.074Z,0.00
2018-12-22T07:50:48.183Z,0.00
2018-12-22T07:51:48.033Z,0.00
2018-12-22T07:52:51.748Z,0.00
2018-12-22T07:53:47.968Z,0.00
2018-12-22T07:54:47.969Z,0.00
2018-12-22T07:55:47.964Z,0.00
2018-12-22T07:56:47.939Z,0.00
2018-12-22T07:57:47.949Z,0.00
2018-12-22T07:58:48.002Z,0.00
2018-12-22T07:59:47.944Z,0.00
2018-12-22T08:00:47.907Z,0.00
2018-12-22T08:01:47.910Z,0.00
2018-12-22T08:02:47.944Z,0.00
2018-12-22T08:03:47.922Z,0.00
2018-12-22T08:04:47.891Z,0.00
2018-12-22T08:05:47.984Z,0.00
2018-12-22T08:06:47.916Z,0.00
2018-12-22T08:07:47.842Z,0.00
2018-12-22T08:08:47.834Z,0.00
2018-12-22T08:09:47.814Z,0.00
2018-12-22T08:10:47.813Z,0.00
2018-12-22T08:11:47.780Z,0.00
2018-12-22T08:12:47.781Z,5.62
2018-12-22T08:13:47.764Z,5.62
2018-12-22T08:14:47.764Z,5.62
2018-12-22T08:15:47.744Z,5.62
2018-12-22T08:16:47.755Z,5.62
2018-12-22T08:17:47.741Z,5.62
2018-12-22T08:18:47.714Z,5.62
2018-12-22T08:19:47.702Z,5.62
2018-12-22T08:20:47.694Z,5.62
2018-12-22T08:21:47.687Z,5.62
2018-12-22T08:22:47.678Z,0.00
2018-12-22T08:23:47.667Z,5.62
2018-12-22T08:24:47.666Z,5.62
2018-12-22T08:25:47.635Z,5.62
2018-12-22T08:26:47.625Z,5.62
2018-12-22T08:27:47.618Z,5.62
2018-12-22T08:28:47.605Z,5.62
2018-12-22T08:29:47.595Z,5.62
2018-12-22T08:30:47.587Z,5.62
2018-12-22T08:31:47.591Z,5.62
2018-12-22T08:32:47.563Z,5.62
2018-12-22T08:33:47.553Z,5.62
2018-12-22T08:34:47.542Z,5.62
2018-12-22T08:35:47.532Z,5.62
2018-12-22T08:36:47.521Z,5.62
2018-12-22T08:37:47.531Z,5.62
2018-12-22T08:38:47.501Z,5.62
2018-12-22T08:39:47.487Z,5.62
2018-12-22T08:40:47.477Z,5.62
2018-12-22T08:41:47.463Z,5.62
2018-12-22T08:42:47.467Z,11.25
2018-12-22T08:43:47.471Z,5.62
2018-12-22T08:44:47.826Z,11.25
2018-12-22T08:45:47.421Z,11.25
2018-12-22T08:46:47.415Z,11.25
2018-12-22T08:47:47.505Z,11.25
2018-12-22T08:48:47.406Z,5.62
2018-12-22T08:49:47.400Z,11.25
2018-12-22T08:50:47.381Z,11.25
2018-12-22T08:51:47.359Z,11.25
2018-12-22T08:52:47.352Z,16.88
2018-12-22T08:53:47.340Z,16.88
2018-12-22T08:54:47.340Z,11.25
2018-12-22T08:55:47.320Z,5.62
2018-12-22T08:56:47.444Z,11.25
2018-12-22T08:57:47.300Z,11.25
2018-12-22T08:58:47.293Z,5.62
2018-12-22T08:59:47.283Z,5.62
2018-12-22T09:00:52.204Z,5.62
2018-12-22T09:01:48.250Z,5.62
2018-12-22T09:02:47.854Z,5.62
2018-12-22T09:03:47.234Z,5.62
2018-12-22T09:04:47.231Z,11.25
2018-12-22T09:05:47.211Z,5.62
2018-12-22T09:06:47.226Z,5.62
2018-12-22T09:07:47.187Z,5.62
2018-12-22T09:08:47.186Z,11.25
2018-12-22T09:09:47.166Z,16.88
2018-12-22T09:10:47.162Z,16.88
2018-12-22T09:11:47.157Z,16.88
2018-12-22T09:12:47.144Z,16.88
2018-12-22T09:13:47.130Z,16.88
2018-12-22T09:14:47.124Z,11.25
2018-12-22T09:15:47.106Z,16.88
2018-12-22T09:16:47.102Z,11.25
2018-12-22T09:17:47.125Z,11.25
2018-12-22T09:18:47.080Z,11.25
2018-12-22T09:19:47.067Z,11.25
2018-12-22T09:20:47.055Z,11.25
2018-12-22T09:21:47.046Z,11.25
2018-12-22T09:22:47.032Z,5.62
2018-12-22T09:23:47.025Z,11.25
2018-12-22T09:24:47.021Z,11.25
2018-12-22T09:25:47.005Z,11.25
2018-12-22T09:26:46.995Z,11.25
2018-12-22T09:27:46.980Z,11.25
2018-12-22T09:28:47.002Z,16.88
2018-12-22T09:29:46.966Z,16.88
2018-12-22T09:30:46.948Z,16.88
2018-12-22T09:31:47.047Z,16.88
2018-12-22T09:32:46.931Z,16.88
2018-12-22T09:33:46.918Z,11.25
2018-12-22T09:34:46.906Z,11.25
2018-12-22T09:35:46.895Z,11.25
2018-12-22T09:36:46.887Z,11.25
2018-12-22T09:37:46.889Z,11.25
2018-12-22T09:38:46.952Z,11.25
2018-12-22T09:39:46.852Z,11.25
2018-12-22T09:40:46.855Z,11.25
2018-12-22T09:41:46.834Z,5.62
2018-12-22T09:42:46.849Z,5.62
2018-12-22T09:43:46.821Z,5.62
2018-12-22T09:44:46.798Z,5.62
2018-12-22T09:45:46.821Z,5.62
2018-12-22T09:46:46.779Z,5.62
2018-12-22T09:47:46.781Z,5.62
2018-12-22T09:48:46.761Z,5.62
2018-12-22T09:49:46.749Z,5.62
2018-12-22T09:50:46.747Z,0.00
2018-12-22T09:51:46.754Z,5.62
2018-12-22T09:52:46.712Z,0.00
2018-12-22T09:53:46.716Z,0.00
2018-12-22T09:54:46.697Z,0.00
2018-12-22T09:55:46.686Z,0.00
2018-12-22T09:56:46.695Z,0.00
2018-12-22T09:57:46.665Z,0.00
2018-12-22T09:58:46.654Z,0.00
2018-12-22T09:59:46.714Z,0.00
2018-12-22T10:00:46.666Z,0.00
2018-12-22T10:01:46.632Z,0.00
2018-12-22T10:02:46.646Z,0.00
2018-12-22T10:03:46.597Z,0.00
2018-12-22T10:04:46.593Z,0.00
2018-12-22T10:05:46.575Z,0.00
2018-12-22T10:06:46.572Z,0.00
2018-12-22T10:07:46.554Z,0.00
2018-12-22T10:08:46.557Z,0.00
2018-12-22T10:09:46.539Z,0.00
2018-12-22T10:10:46.535Z,0.00
2018-12-22T10:11:46.515Z,5.62
2018-12-22T10:12:46.508Z,5.62
2018-12-22T10:13:46.493Z,5.62
2018-12-22T10:14:46.492Z,5.62
2018-12-22T10:15:46.481Z,5.62
2018-12-22T10:16:46.465Z,5.62
2018-12-22T10:17:46.515Z,5.62
2018-12-22T10:18:46.459Z,5.62
2018-12-22T10:19:46.443Z,11.25
2018-12-22T10:20:46.435Z,11.25
2018-12-22T10:21:46.408Z,16.88
2018-12-22T10:22:46.407Z,16.88
2018-12-22T10:23:46.385Z,16.88
2018-12-22T10:24:46.388Z,11.25
2018-12-22T10:25:46.374Z,16.88
2018-12-22T10:26:46.378Z,16.88
2018-12-22T10:27:46.346Z,16.88
2018-12-22T10:28:46.347Z,16.88
2018-12-22T10:29:46.354Z,16.88
2018-12-22T10:30:46.311Z,16.88
2018-12-22T10:31:46.321Z,16.88
2018-12-22T10:32:46.291Z,16.88
2018-12-22T10:33:46.286Z,16.88
2018-12-22T10:34:46.284Z,11.25
2018-12-22T10:35:46.264Z,11.25
2018-12-22T10:36:46.248Z,11.25
2018-12-22T10:37:46.292Z,11.25
2018-12-22T10:38:46.232Z,11.25
2018-12-22T10:39:46.226Z,16.88
2018-12-22T10:40:46.298Z,11.25
2018-12-22T10:41:46.206Z,11.25
2018-12-22T10:42:46.293Z,16.88
2018-12-22T10:43:46.201Z,16.88
2018-12-22T10:44:46.172Z,16.88
2018-12-22T10:45:46.159Z,16.88
2018-12-22T10:46:46.142Z,11.25
2018-12-22T10:47:46.151Z,11.25
2018-12-22T10:48:46.121Z,11.25
2018-12-22T10:49:46.113Z,16.88
2018-12-22T10:50:46.124Z,16.88
2018-12-22T10:51:46.107Z,22.50
2018-12-22T10:52:46.083Z,16.88
2018-12-22T10:53:46.073Z,16.88
2018-12-22T10:54:46.076Z,16.88
2018-12-22T10:55:46.047Z,16.88
2018-12-22T10:56:46.038Z,22.50
2018-12-22T10:57:46.042Z,22.50
2018-12-22T10:58:46.018Z,16.88
2018-12-22T10:59:46.001Z,16.88
2018-12-22T11:00:45.994Z,22.50
2018-12-22T11:01:45.991Z,22.50
2018-12-22T11:02:45.998Z,22.50
2018-12-22T11:03:45.966Z,22.50
2018-12-22T11:04:45.998Z,22.50
2018-12-22T11:05:45.946Z,22.50
2018-12-22T11:06:45.932Z,22.50
2018-12-22T11:07:45.930Z,16.88
2018-12-22T11:08:45.915Z,22.50
2018-12-22T11:09:45.905Z,22.50
2018-12-22T11:10:45.890Z,22.50
2018-12-22T11:11:45.883Z,22.50
2018-12-22T11:12:45.886Z,28.12
2018-12-22T11:13:45.881Z,33.75
2018-12-22T11:14:45.876Z,33.75
2018-12-22T11:15:45.844Z,28.12
2018-12-22T11:16:45.827Z,22.50
2018-12-22T11:17:45.818Z,16.88
2018-12-22T11:18:45.809Z,16.88
2018-12-22T11:19:45.815Z,16.88
2018-12-22T11:20:45.797Z,16.88
2018-12-22T11:21:45.781Z,22.50
2018-12-22T11:22:45.762Z,22.50
2018-12-22T11:23:45.763Z,28.12
2018-12-22T11:24:45.746Z,28.12
2018-12-22T11:25:45.748Z,22.50
2018-12-22T11:26:45.762Z,28.12
2018-12-22T11:27:45.709Z,28.12
2018-12-22T11:28:45.697Z,28.12
2018-12-22T11:29:45.686Z,33.75
2018-12-22T11:30:45.682Z,33.75
2018-12-22T11:31:45.683Z,33.75
2018-12-22T11:32:45.664Z,33.75
2018-12-22T11:33:45.651Z,33.75
2018-12-22T11:34:45.637Z,33.75
2018-12-22T11:35:45.632Z,28.12
2018-12-22T11:36:45.621Z,28.12
2018-12-22T11:37:45.620Z,28.12
2018-12-22T11:38:45.595Z,28.12
2018-12-22T11:39:45.583Z,33.75
2018-12-22T11:40:45.581Z,33.75
2018-12-22T11:41:45.565Z,33.75
2018-12-22T11:42:47.820Z,33.75
2018-12-22T11:43:45.551Z,33.75
2018-12-22T11:44:45.534Z,39.38
2018-12-22T11:45:45.521Z,45.00
2018-12-22T11:46:45.510Z,45.00
2018-12-22T11:47:45.510Z,39.38
2018-12-22T11:48:45.499Z,39.38
2018-12-22T11:49:45.498Z,39.38
2018-12-22T11:50:45.465Z,39.38
2018-12-22T11:51:45.515Z,39.38
2018-12-22T11:52:45.443Z,39.38
2018-12-22T11:53:45.439Z,39.38
2018-12-22T11:54:45.435Z,33.75
2018-12-22T11:55:45.429Z,33.75
2018-12-22T11:56:45.406Z,28.12
2018-12-22T11:57:45.414Z,28.12
2018-12-22T11:58:45.389Z,22.50
2018-12-22T11:59:45.375Z,22.50
2018-12-22T12:00:45.369Z,22.50
2018-12-22T12:01:45.375Z,22.50
2018-12-22T12:02:45.346Z,16.88
2018-12-22T12:03:45.334Z,16.88
2018-12-22T12:04:45.318Z,16.88
2018-12-22T12:05:45.330Z,11.25
2018-12-22T12:06:45.299Z,11.25
2018-12-22T12:07:45.299Z,11.25
2018-12-22T12:08:45.283Z,11.25
2018-12-22T12:09:45.272Z,11.25
2018-12-22T12:10:45.265Z,11.25
2018-12-22T12:11:45.253Z,5.62
2018-12-22T12:12:45.246Z,5.62
2018-12-22T12:13:45.230Z,5.62
2018-12-22T12:14:45.232Z,11.25
2018-12-22T12:15:45.202Z,5.62
2018-12-22T12:16:45.202Z,5.62
2018-12-22T12:17:45.183Z,5.62
2018-12-22T12:18:45.174Z,5.62
2018-12-22T12:19:45.186Z,11.25
2018-12-22T12:20:45.159Z,11.25
2018-12-22T12:21:45.256Z,16.88
2018-12-22T12:22:45.132Z,11.25
2018-12-22T12:23:45.124Z,11.25
2018-12-22T12:24:45.106Z,11.25
2018-12-22T12:25:45.102Z,16.88
2018-12-22T12:26:45.105Z,16.88
2018-12-22T12:27:45.081Z,22.50
2018-12-22T12:28:45.070Z,22.50
2018-12-22T12:29:45.060Z,22.50
2018-12-22T12:30:45.046Z,22.50
2018-12-22T12:31:52.113Z,22.50
2018-12-22T12:32:46.037Z,22.50
2018-12-22T12:33:45.024Z,28.12
2018-12-22T12:34:45.014Z,28.12
2018-12-22T12:35:45.001Z,33.75
2018-12-22T12:36:44.993Z,33.75
2018-12-22T12:37:44.977Z,39.38
2018-12-22T12:38:44.960Z,39.38
2018-12-22T12:39:44.953Z,39.38
2018-12-22T12:40:45.085Z,39.38
2018-12-22T12:41:44.932Z,45.00
2018-12-22T12:42:44.936Z,50.62
2018-12-22T12:43:44.917Z,50.62
2018-12-22T12:44:44.898Z,56.25
2018-12-22T12:45:44.893Z,56.25
2018-12-22T12:46:44.893Z,56.25
2018-12-22T12:47:44.872Z,56.25
2018-12-22T12:48:44.859Z,45.00
2018-12-22T12:49:44.907Z,45.00
2018-12-22T12:50:44.841Z,45.00
2018-12-22T12:51:44.826Z,39.38
2018-12-22T12:52:44.821Z,33.75
2018-12-22T12:53:44.826Z,28.12
2018-12-22T12:54:44.793Z,28.12
2018-12-22T12:55:44.789Z,28.12
2018-12-22T12:56:44.791Z,22.50
2018-12-22T12:57:44.790Z,22.50
2018-12-22T12:58:44.757Z,22.50
2018-12-22T12:59:44.740Z,22.50
2018-12-22T13:00:44.726Z,16.88
2018-12-22T13:01:44.723Z,16.88
2018-12-22T13:02:44.738Z,16.88
2018-12-22T13:03:44.706Z,16.88
2018-12-22T13:04:44.693Z,16.88
2018-12-22T13:05:44.680Z,16.88
2018-12-22T13:06:44.675Z,22.50
2018-12-22T13:07:44.656Z,22.50
2018-12-22T13:08:44.651Z,22.50
2018-12-22T13:09:44.665Z,22.50
2018-12-22T13:10:44.624Z,16.88
2018-12-22T13:11:44.617Z,16.88